Time,TemperatureF,DewpointF,PressureIn,WindDirection,WindDirectionDegrees,WindSpeedMPH,WindSpeedGustMPH,Humidity,HourlyPrecipIn,Conditions,Clouds,dailyrainin,SoftwareType,DateUTC
2013-06-30 00:01:00,70.3,70.5,29.83,WSW,247,3.5,6.5,100,0.00,,,0.00,Rainwise IP-100,2013-06-30 04:01:00,
2013-06-30 00:06:00,70.2,70.0,29.82,ESE,112,0.0,7.5,100,0.00,,,0.00,Rainwise IP-100,2013-06-30 04:06:00,
2013-06-30 00:11:00,70.1,70.0,29.82,SSE,157,1.6,5.8,100,0.00,,,0.00,Rainwise IP-100,2013-06-30 04:11:00,
2013-06-30 00:16:00,70.1,70.0,29.82,SSE,157,0.0,6.1,100,0.00,,,0.00,Rainwise IP-100,2013-06-30 04:16:00,
2013-06-30 00:21:00,70.1,70.0,29.82,SSE,157,2.3,5.8,100,0.00,,,0.00,Rainwise IP-100,2013-06-30 04:21:00,
2013-06-30 00:26:00,70.1,70.0,29.82,SSE,157,1.6,6.3,100,0.00,,,0.00,Rainwise IP-100,2013-06-30 04:26:00,
2013-06-30 00:31:00,70.1,70.0,29.82,SSE,157,1.4,10.3,100,0.00,,,0.00,Rainwise IP-100,2013-06-30 04:31:00,
2013-06-30 00:36:00,70.0,70.0,29.82,SW,225,1.4,8.4,100,0.00,,,0.00,Rainwise IP-100,2013-06-30 04:36:00,
2013-06-30 00:41:00,70.0,70.0,29.82,WSW,247,0.0,7.7,100,0.00,,,0.00,Rainwise IP-100,2013-06-30 04:41:00,
2013-06-30 00:46:00,70.1,70.0,29.83,North,360,0.0,7.0,100,0.00,,,0.00,Rainwise IP-100,2013-06-30 04:46:00,
2013-06-30 00:51:00,70.1,70.0,29.82,SE,135,4.2,5.8,100,0.00,,,0.00,Rainwise IP-100,2013-06-30 04:51:00,
2013-06-30 00:56:00,70.1,70.0,29.83,SW,225,4.9,5.8,100,0.00,,,0.00,Rainwise IP-100,2013-06-30 04:56:00,
2013-06-30 01:01:00,70.1,70.0,29.83,SSE,157,0.0,6.3,100,0.00,,,0.00,Rainwise IP-100,2013-06-30 05:01:00,
2013-06-30 01:06:00,70.2,70.0,29.83,SSW,202,1.4,7.9,100,0.00,,,0.00,Rainwise IP-100,2013-06-30 05:06:00,
2013-06-30 01:11:00,70.1,70.0,29.83,SSE,157,5.6,7.0,100,0.00,,,0.00,Rainwise IP-100,2013-06-30 05:11:00,
2013-06-30 01:16:00,70.0,70.0,29.83,SW,225,1.4,7.0,100,0.00,,,0.00,Rainwise IP-100,2013-06-30 05:16:00,
2013-06-30 01:21:00,69.9,70.0,29.83,SSE,157,3.7,4.0,100,0.00,,,0.00,Rainwise IP-100,2013-06-30 05:21:00,
2013-06-30 01:26:00,69.8,69.7,29.83,SSE,157,1.4,5.1,100,0.00,,,0.00,Rainwise IP-100,2013-06-30 05:26:00,
2013-06-30 01:31:00,69.8,69.7,29.83,SSE,157,4.0,6.1,100,0.00,,,0.00,Rainwise IP-100,2013-06-30 05:31:00,
2013-06-30 01:36:00,69.8,69.7,29.84,SSE,157,2.1,5.6,100,0.00,,,0.00,Rainwise IP-100,2013-06-30 05:36:00,
2013-06-30 01:41:00,69.8,69.7,29.83,SE,135,3.0,4.2,100,0.00,,,0.00,Rainwise IP-100,2013-06-30 05:41:00,
2013-06-30 01:46:00,69.8,69.7,29.83,ESE,112,1.9,4.9,100,0.00,,,0.00,Rainwise IP-100,2013-06-30 05:46:00,
2013-06-30 01:51:00,69.7,69.7,29.83,SSE,157,3.7,4.4,100,0.00,,,0.00,Rainwise IP-100,2013-06-30 05:51:00,
2013-06-30 01:56:00,69.7,69.7,29.83,SSE,157,2.1,4.0,100,0.00,,,0.00,Rainwise IP-100,2013-06-30 05:56:00,
2013-06-30 02:01:00,69.6,69.7,29.83,SSE,157,0.0,6.1,100,0.00,,,0.00,Rainwise IP-100,2013-06-30 06:01:00,
2013-06-30 02:06:00,69.5,69.7,29.83,SE,135,0.0,3.5,100,0.00,,,0.00,Rainwise IP-100,2013-06-30 06:06:00,
2013-06-30 02:11:00,69.4,69.3,29.83,ESE,112,2.3,3.7,100,0.00,,,0.00,Rainwise IP-100,2013-06-30 06:11:00,
2013-06-30 02:16:00,69.4,69.3,29.83,SSE,157,1.4,5.4,100,0.00,,,0.00,Rainwise IP-100,2013-06-30 06:16:00,
2013-06-30 02:21:00,69.3,69.3,29.83,SW,225,0.0,6.8,100,0.00,,,0.00,Rainwise IP-100,2013-06-30 06:21:00,
2013-06-30 02:26:00,69.3,69.3,29.83,SW,225,2.8,5.8,100,0.00,,,0.00,Rainwise IP-100,2013-06-30 06:26:00,
2013-06-30 02:31:00,69.2,69.3,29.84,WSW,247,1.4,5.8,100,0.00,,,0.00,Rainwise IP-100,2013-06-30 06:31:00,
2013-06-30 02:36:00,69.3,69.3,29.84,SSW,202,0.0,5.8,100,0.00,,,0.00,Rainwise IP-100,2013-06-30 06:36:00,
2013-06-30 02:41:00,69.3,69.3,29.83,SSW,202,3.0,6.8,100,0.00,,,0.00,Rainwise IP-100,2013-06-30 06:41:00,
2013-06-30 02:46:00,69.4,69.3,29.83,SW,225,1.9,5.4,100,0.00,,,0.00,Rainwise IP-100,2013-06-30 06:46:00,
2013-06-30 02:51:00,69.6,69.7,29.83,WNW,292,0.0,7.5,100,0.00,,,0.00,Rainwise IP-100,2013-06-30 06:51:00,
2013-06-30 02:56:00,69.7,69.7,29.83,SSW,202,4.2,7.2,100,0.00,,,0.00,Rainwise IP-100,2013-06-30 06:56:00,
2013-06-30 03:01:00,69.7,69.7,29.83,SSW,202,0.0,5.6,100,0.00,,,0.00,Rainwise IP-100,2013-06-30 07:01:00,
2013-06-30 03:06:00,69.8,69.7,29.83,North,360,1.2,4.4,100,0.00,,,0.00,Rainwise IP-100,2013-06-30 07:06:00,
2013-06-30 03:11:00,69.8,69.7,29.83,SSW,202,1.2,4.7,100,0.00,,,0.00,Rainwise IP-100,2013-06-30 07:11:00,
2013-06-30 03:16:00,69.8,69.7,29.83,WSW,247,0.0,6.3,100,0.00,,,0.00,Rainwise IP-100,2013-06-30 07:16:00,
2013-06-30 03:21:00,69.9,70.0,29.83,South,180,1.4,5.1,100,0.00,,,0.00,Rainwise IP-100,2013-06-30 07:21:00,
2013-06-30 03:26:00,69.9,70.0,29.83,SSW,202,2.1,4.2,100,0.00,,,0.00,Rainwise IP-100,2013-06-30 07:26:00,
2013-06-30 03:31:00,70.0,70.0,29.82,WSW,247,0.0,6.1,100,0.00,,,0.00,Rainwise IP-100,2013-06-30 07:31:00,
2013-06-30 03:36:00,70.0,70.0,29.82,South,180,1.2,4.2,100,0.00,,,0.00,Rainwise IP-100,2013-06-30 07:36:00,
2013-06-30 03:41:00,70.0,70.0,29.82,WNW,292,0.0,5.6,100,0.00,,,0.00,Rainwise IP-100,2013-06-30 07:41:00,
2013-06-30 03:46:00,70.0,70.0,29.83,SW,225,3.7,3.7,100,0.00,,,0.00,Rainwise IP-100,2013-06-30 07:46:00,
2013-06-30 03:51:00,70.1,70.0,29.83,SW,225,0.0,6.3,100,0.00,,,0.00,Rainwise IP-100,2013-06-30 07:51:00,
2013-06-30 03:56:00,70.2,70.0,29.83,WSW,247,1.4,5.8,100,0.00,,,0.00,Rainwise IP-100,2013-06-30 07:56:00,
2013-06-30 04:01:00,70.2,70.0,29.83,WSW,247,1.6,5.4,100,0.00,,,0.00,Rainwise IP-100,2013-06-30 08:01:00,
2013-06-30 04:06:00,70.3,70.5,29.83,SW,225,3.7,4.0,100,0.00,,,0.00,Rainwise IP-100,2013-06-30 08:06:00,
2013-06-30 04:11:00,70.3,70.5,29.83,SSW,202,0.0,4.7,100,0.00,,,0.00,Rainwise IP-100,2013-06-30 08:11:00,
2013-06-30 04:16:00,70.3,70.5,29.83,WSW,247,1.9,2.1,100,0.00,,,0.00,Rainwise IP-100,2013-06-30 08:16:00,
2013-06-30 04:21:00,70.3,70.5,29.84,WNW,292,0.0,4.0,100,0.00,,,0.00,Rainwise IP-100,2013-06-30 08:21:00,
2013-06-30 04:26:00,70.3,70.5,29.84,WSW,247,0.0,4.2,100,0.00,,,0.00,Rainwise IP-100,2013-06-30 08:26:00,
2013-06-30 04:31:00,70.3,70.5,29.84,WSW,247,0.0,4.2,100,0.00,,,0.00,Rainwise IP-100,2013-06-30 08:31:00,
2013-06-30 04:36:00,70.3,70.5,29.84,SSE,157,0.0,4.0,100,0.00,,,0.00,Rainwise IP-100,2013-06-30 08:36:00,
2013-06-30 04:41:00,70.3,70.5,29.84,SSW,202,0.0,4.4,100,0.00,,,0.00,Rainwise IP-100,2013-06-30 08:41:00,
2013-06-30 04:46:00,70.2,70.0,29.84,WSW,247,0.0,4.4,100,0.00,,,0.00,Rainwise IP-100,2013-06-30 08:46:00,
2013-06-30 04:51:00,70.2,70.0,29.84,South,180,1.6,4.0,100,0.00,,,0.00,Rainwise IP-100,2013-06-30 08:51:00,
2013-06-30 04:56:00,70.2,70.0,29.85,SSE,157,0.0,5.8,100,0.00,,,0.00,Rainwise IP-100,2013-06-30 08:56:00,
2013-06-30 05:01:00,70.2,70.0,29.85,SSE,157,0.0,3.3,100,0.00,,,0.00,Rainwise IP-100,2013-06-30 09:01:00,
2013-06-30 05:06:00,70.3,70.5,29.85,WSW,247,0.0,4.9,100,0.00,,,0.00,Rainwise IP-100,2013-06-30 09:06:00,
2013-06-30 05:11:00,70.3,70.5,29.85,WSW,247,2.8,6.8,100,0.00,,,0.00,Rainwise IP-100,2013-06-30 09:11:00,
2013-06-30 05:16:00,70.3,70.5,29.86,WNW,292,3.5,6.8,100,0.00,,,0.00,Rainwise IP-100,2013-06-30 09:16:00,
2013-06-30 05:21:00,70.3,70.5,29.86,SSW,202,0.0,3.5,100,0.00,,,0.00,Rainwise IP-100,2013-06-30 09:21:00,
2013-06-30 05:26:00,70.3,70.5,29.86,SSW,202,0.0,4.2,100,0.00,,,0.00,Rainwise IP-100,2013-06-30 09:26:00,
2013-06-30 05:31:00,70.4,70.5,29.86,SSE,157,0.0,4.4,100,0.00,,,0.00,Rainwise IP-100,2013-06-30 09:31:00,
2013-06-30 05:36:00,70.4,70.5,29.86,SSW,202,1.2,4.9,100,0.00,,,0.00,Rainwise IP-100,2013-06-30 09:36:00,
2013-06-30 05:41:00,70.4,70.5,29.86,SSW,202,1.4,5.6,100,0.00,,,0.00,Rainwise IP-100,2013-06-30 09:41:00,
2013-06-30 05:46:00,70.5,70.5,29.87,SSE,157,1.6,4.2,100,0.00,,,0.00,Rainwise IP-100,2013-06-30 09:46:00,
2013-06-30 05:51:00,70.5,70.5,29.87,WSW,247,7.2,7.2,100,0.00,,,0.00,Rainwise IP-100,2013-06-30 09:51:00,
2013-06-30 05:56:00,70.5,70.5,29.87,SSE,157,2.3,7.2,100,0.00,,,0.00,Rainwise IP-100,2013-06-30 09:56:00,
2013-06-30 06:01:00,70.6,70.5,29.87,WSW,247,0.0,5.8,100,0.00,,,0.00,Rainwise IP-100,2013-06-30 10:01:00,
2013-06-30 06:06:00,70.6,70.5,29.87,SW,225,4.0,7.5,100,0.00,,,0.00,Rainwise IP-100,2013-06-30 10:06:00,
2013-06-30 06:11:00,70.7,70.5,29.87,North,360,3.5,6.1,100,0.00,,,0.00,Rainwise IP-100,2013-06-30 10:11:00,
2013-06-30 06:16:00,70.7,70.5,29.88,SSE,157,4.7,5.1,100,0.00,,,0.00,Rainwise IP-100,2013-06-30 10:16:00,
2013-06-30 06:21:00,70.7,70.5,29.88,South,180,3.0,5.1,100,0.00,,,0.00,Rainwise IP-100,2013-06-30 10:21:00,
2013-06-30 06:26:00,70.8,71.0,29.88,SSE,157,0.0,5.6,100,0.00,,,0.00,Rainwise IP-100,2013-06-30 10:26:00,
2013-06-30 06:31:00,70.9,71.0,29.89,NNW,337,1.9,4.7,100,0.00,,,0.00,Rainwise IP-100,2013-06-30 10:31:00,
2013-06-30 06:36:00,71.0,71.0,29.89,SSW,202,6.1,6.1,100,0.00,,,0.00,Rainwise IP-100,2013-06-30 10:36:00,
2013-06-30 06:41:00,71.1,71.0,29.89,SSW,202,0.0,7.0,100,0.00,,,0.00,Rainwise IP-100,2013-06-30 10:41:00,
2013-06-30 06:46:00,71.2,71.3,29.89,WNW,292,0.0,4.7,100,0.00,,,0.00,Rainwise IP-100,2013-06-30 10:46:00,
2013-06-30 06:51:00,71.3,71.3,29.90,SSE,157,0.0,5.8,100,0.00,,,0.00,Rainwise IP-100,2013-06-30 10:51:00,
2013-06-30 06:56:00,71.4,71.3,29.89,WSW,247,0.0,5.8,100,0.00,,,0.00,Rainwise IP-100,2013-06-30 10:56:00,
2013-06-30 07:01:00,71.4,71.3,29.89,WSW,247,2.8,5.6,100,0.00,,,0.00,Rainwise IP-100,2013-06-30 11:01:00,
2013-06-30 07:06:00,71.5,71.7,29.89,West,270,1.9,4.9,100,0.00,,,0.00,Rainwise IP-100,2013-06-30 11:06:00,
2013-06-30 07:11:00,71.6,71.7,29.89,WSW,247,2.3,3.3,100,0.00,,,0.00,Rainwise IP-100,2013-06-30 11:11:00,
2013-06-30 07:16:00,71.6,71.7,29.90,WSW,247,0.0,4.0,100,0.00,,,0.00,Rainwise IP-100,2013-06-30 11:16:00,
2013-06-30 07:21:00,71.6,71.7,29.90,SSW,202,4.0,5.1,100,0.00,,,0.00,Rainwise IP-100,2013-06-30 11:21:00,
2013-06-30 07:26:00,71.6,71.7,29.90,South,180,1.9,6.5,100,0.00,,,0.00,Rainwise IP-100,2013-06-30 11:26:00,
2013-06-30 07:31:00,71.6,71.7,29.90,South,180,0.0,6.1,100,0.00,,,0.00,Rainwise IP-100,2013-06-30 11:31:00,
2013-06-30 07:36:00,71.5,71.7,29.90,WSW,247,0.0,6.1,100,0.00,,,0.00,Rainwise IP-100,2013-06-30 11:36:00,
2013-06-30 07:41:00,71.5,71.7,29.90,WNW,292,2.3,4.7,100,0.00,,,0.00,Rainwise IP-100,2013-06-30 11:41:00,
2013-06-30 07:46:00,71.5,71.7,29.90,SSW,202,1.6,5.4,100,0.00,,,0.00,Rainwise IP-100,2013-06-30 11:46:00,
2013-06-30 07:51:00,71.4,71.3,29.90,WSW,247,0.0,6.3,100,0.00,,,0.00,Rainwise IP-100,2013-06-30 11:51:00,
2013-06-30 07:56:00,71.4,71.3,29.91,WSW,247,3.0,3.7,100,0.00,,,0.00,Rainwise IP-100,2013-06-30 11:56:00,
2013-06-30 08:01:00,71.5,71.7,29.90,SW,225,5.8,6.3,100,0.00,,,0.00,Rainwise IP-100,2013-06-30 12:01:00,
2013-06-30 08:06:00,71.6,71.7,29.91,WSW,247,2.8,7.7,100,0.00,,,0.00,Rainwise IP-100,2013-06-30 12:06:00,
2013-06-30 08:11:00,71.6,71.7,29.91,WNW,292,3.0,7.7,100,0.00,,,0.00,Rainwise IP-100,2013-06-30 12:11:00,
2013-06-30 08:16:00,71.6,71.7,29.91,WNW,292,1.9,8.4,100,0.00,,,0.00,Rainwise IP-100,2013-06-30 12:16:00,
2013-06-30 08:21:00,71.8,71.7,29.91,WSW,247,0.0,7.2,100,0.00,,,0.00,Rainwise IP-100,2013-06-30 12:21:00,
2013-06-30 08:26:00,72.0,72.0,29.91,WNW,292,1.2,7.2,100,0.00,,,0.00,Rainwise IP-100,2013-06-30 12:26:00,
2013-06-30 08:31:00,72.1,72.0,29.91,WSW,247,1.6,6.1,100,0.00,,,0.00,Rainwise IP-100,2013-06-30 12:31:00,
2013-06-30 08:36:00,72.2,72.3,29.92,SW,225,3.7,8.2,100,0.00,,,0.00,Rainwise IP-100,2013-06-30 12:36:00,
2013-06-30 08:41:00,72.2,72.3,29.92,SSE,157,0.0,7.2,100,0.00,,,0.00,Rainwise IP-100,2013-06-30 12:41:00,
2013-06-30 08:46:00,72.3,72.3,29.92,SSE,157,1.6,5.8,100,0.00,,,0.00,Rainwise IP-100,2013-06-30 12:46:00,
2013-06-30 08:51:00,72.3,72.3,29.92,SW,225,2.3,5.6,100,0.00,,,0.00,Rainwise IP-100,2013-06-30 12:51:00,
2013-06-30 08:56:00,72.4,72.3,29.92,SW,225,1.2,5.6,100,0.00,,,0.00,Rainwise IP-100,2013-06-30 12:56:00,
2013-06-30 09:01:00,72.3,72.3,29.92,SSW,202,5.1,6.8,100,0.00,,,0.00,Rainwise IP-100,2013-06-30 13:01:00,
2013-06-30 09:06:00,72.2,72.3,29.92,SW,225,0.0,5.8,100,0.00,,,0.00,Rainwise IP-100,2013-06-30 13:06:00,
2013-06-30 09:11:00,72.2,72.3,29.91,SSE,157,2.8,5.4,100,0.00,,,0.00,Rainwise IP-100,2013-06-30 13:11:00,
2013-06-30 09:16:00,72.3,72.3,29.92,SE,135,3.7,5.4,100,0.00,,,0.00,Rainwise IP-100,2013-06-30 13:16:00,
2013-06-30 09:21:00,72.4,72.3,29.92,SSE,157,0.0,5.4,100,0.00,,,0.00,Rainwise IP-100,2013-06-30 13:21:00,
2013-06-30 09:26:00,72.4,72.3,29.91,SSW,202,2.3,9.3,100,0.00,,,0.00,Rainwise IP-100,2013-06-30 13:26:00,
2013-06-30 09:31:00,72.3,72.3,29.92,WSW,247,0.0,7.7,100,0.00,,,0.00,Rainwise IP-100,2013-06-30 13:31:00,
2013-06-30 09:36:00,72.4,72.3,29.92,West,270,0.0,8.6,100,0.00,,,0.00,Rainwise IP-100,2013-06-30 13:36:00,
2013-06-30 09:41:00,72.6,72.7,29.91,SSE,157,0.0,6.8,100,0.00,,,0.00,Rainwise IP-100,2013-06-30 13:41:00,
2013-06-30 09:46:00,72.8,72.7,29.92,SSE,157,1.2,5.8,100,0.00,,,0.00,Rainwise IP-100,2013-06-30 13:46:00,
2013-06-30 09:51:00,72.9,72.7,29.91,WSW,247,1.2,6.3,99,0.00,,,0.00,Rainwise IP-100,2013-06-30 13:51:00,
2013-06-30 09:56:00,73.1,72.7,29.92,SSE,157,1.2,10.5,99,0.00,,,0.00,Rainwise IP-100,2013-06-30 13:56:00,
2013-06-30 10:01:00,73.1,72.7,29.92,SSW,202,3.7,7.0,99,0.00,,,0.00,Rainwise IP-100,2013-06-30 14:01:00,
2013-06-30 10:06:00,73.2,73.0,29.92,WSW,247,2.8,5.4,99,0.00,,,0.00,Rainwise IP-100,2013-06-30 14:06:00,
2013-06-30 10:11:00,73.3,72.7,29.92,NE,45,0.0,6.3,98,0.00,,,0.00,Rainwise IP-100,2013-06-30 14:11:00,
2013-06-30 10:16:00,73.3,72.7,29.92,SW,225,2.6,6.3,98,0.00,,,0.00,Rainwise IP-100,2013-06-30 14:16:00,
2013-06-30 10:21:00,73.4,72.7,29.93,WSW,247,3.3,5.8,98,0.00,,,0.00,Rainwise IP-100,2013-06-30 14:21:00,
2013-06-30 10:26:00,73.4,72.7,29.93,WNW,292,3.5,7.2,98,0.00,,,0.00,Rainwise IP-100,2013-06-30 14:26:00,
2013-06-30 10:31:00,73.5,73.0,29.92,WNW,292,2.3,9.1,98,0.00,,,0.00,Rainwise IP-100,2013-06-30 14:31:00,
2013-06-30 10:36:00,73.5,73.0,29.92,SSE,157,0.0,8.6,98,0.00,,,0.00,Rainwise IP-100,2013-06-30 14:36:00,
2013-06-30 10:41:00,73.5,73.0,29.93,South,180,3.5,11.4,98,0.00,,,0.00,Rainwise IP-100,2013-06-30 14:41:00,
2013-06-30 10:46:00,73.6,73.0,29.93,WSW,247,2.1,7.7,98,0.00,,,0.00,Rainwise IP-100,2013-06-30 14:46:00,
2013-06-30 10:51:00,73.6,73.0,29.93,West,270,4.0,9.3,98,0.00,,,0.00,Rainwise IP-100,2013-06-30 14:51:00,
2013-06-30 10:56:00,73.8,73.0,29.93,SSW,202,2.3,6.3,98,0.00,,,0.00,Rainwise IP-100,2013-06-30 14:56:00,
2013-06-30 11:01:00,74.0,73.0,29.92,WNW,292,3.7,6.1,97,0.00,,,0.00,Rainwise IP-100,2013-06-30 15:01:00,
2013-06-30 11:06:00,74.1,73.0,29.93,WSW,247,3.5,9.3,97,0.00,,,0.00,Rainwise IP-100,2013-06-30 15:06:00,
2013-06-30 11:11:00,74.0,73.0,29.93,West,270,0.0,9.8,97,0.00,,,0.00,Rainwise IP-100,2013-06-30 15:11:00,
2013-06-30 11:16:00,73.9,73.0,29.93,SSW,202,3.0,7.7,97,0.00,,,0.00,Rainwise IP-100,2013-06-30 15:16:00,
2013-06-30 11:21:00,74.0,73.0,29.93,WNW,292,0.0,10.3,97,0.00,,,0.00,Rainwise IP-100,2013-06-30 15:21:00,
2013-06-30 11:26:00,74.2,73.3,29.94,SSE,157,4.4,8.6,96,0.00,,,0.00,Rainwise IP-100,2013-06-30 15:26:00,
2013-06-30 11:31:00,74.5,73.7,29.94,SSE,157,1.2,8.4,96,0.00,,,0.00,Rainwise IP-100,2013-06-30 15:31:00,
2013-06-30 11:36:00,74.9,73.7,29.94,SSW,202,4.7,5.4,95,0.00,,,0.00,Rainwise IP-100,2013-06-30 15:36:00,
2013-06-30 11:41:00,75.2,73.3,29.94,WSW,247,3.0,10.3,94,0.00,,,0.00,Rainwise IP-100,2013-06-30 15:41:00,
2013-06-30 11:46:00,75.0,73.3,29.93,SSW,202,5.1,10.5,94,0.00,,,0.00,Rainwise IP-100,2013-06-30 15:46:00,
2013-06-30 11:51:00,74.9,73.3,29.94,SSW,202,1.6,8.9,94,0.00,,,0.00,Rainwise IP-100,2013-06-30 15:51:00,
2013-06-30 11:56:00,75.1,73.3,29.94,WSW,247,1.2,8.6,94,0.00,,,0.00,Rainwise IP-100,2013-06-30 15:56:00,
2013-06-30 12:01:00,75.2,73.3,29.93,WSW,247,4.0,11.9,94,0.00,,,0.00,Rainwise IP-100,2013-06-30 16:01:00,
2013-06-30 12:06:00,75.2,73.3,29.93,SSW,202,10.7,11.9,94,0.00,,,0.00,Rainwise IP-100,2013-06-30 16:06:00,
2013-06-30 12:11:00,75.3,73.7,29.93,NNW,337,1.9,12.4,94,0.00,,,0.00,Rainwise IP-100,2013-06-30 16:11:00,
2013-06-30 12:16:00,75.4,73.7,29.93,SSW,202,2.6,5.8,94,0.00,,,0.00,Rainwise IP-100,2013-06-30 16:16:00,
2013-06-30 12:21:00,75.2,73.3,29.93,WNW,292,2.3,11.7,94,0.00,,,0.00,Rainwise IP-100,2013-06-30 16:21:00,
2013-06-30 12:26:00,74.8,73.0,29.94,NE,45,0.0,5.6,94,0.00,,,0.00,Rainwise IP-100,2013-06-30 16:26:00,
2013-06-30 12:31:00,74.5,73.0,29.94,SSW,202,4.0,10.5,94,0.00,,,0.00,Rainwise IP-100,2013-06-30 16:31:00,
2013-06-30 12:36:00,74.2,72.7,29.93,SSE,157,1.9,8.4,94,0.00,,,0.00,Rainwise IP-100,2013-06-30 16:36:00,
2013-06-30 12:41:00,74.0,72.7,29.94,SSW,202,3.5,9.8,95,0.00,,,0.00,Rainwise IP-100,2013-06-30 16:41:00,
2013-06-30 12:46:00,73.7,72.3,29.93,WNW,292,3.7,5.8,95,0.00,,,0.00,Rainwise IP-100,2013-06-30 16:46:00,
2013-06-30 12:51:00,73.4,72.0,29.94,WSW,247,3.7,6.8,95,0.00,,,0.00,Rainwise IP-100,2013-06-30 16:51:00,
2013-06-30 12:56:00,73.2,72.0,29.94,WSW,247,3.7,10.3,95,0.00,,,0.00,Rainwise IP-100,2013-06-30 16:56:00,
2013-06-30 13:01:00,73.1,71.7,29.93,WNW,292,3.3,7.9,95,0.00,,,0.00,Rainwise IP-100,2013-06-30 17:01:00,
2013-06-30 13:06:00,73.2,72.3,29.94,WNW,292,4.4,11.9,96,0.00,,,0.00,Rainwise IP-100,2013-06-30 17:06:00,
2013-06-30 13:11:00,73.8,72.3,29.93,WNW,292,0.0,5.8,95,0.00,,,0.00,Rainwise IP-100,2013-06-30 17:11:00,
2013-06-30 13:16:00,74.6,73.3,29.93,WNW,292,4.4,8.4,95,0.00,,,0.00,Rainwise IP-100,2013-06-30 17:16:00,
2013-06-30 13:21:00,75.2,73.0,29.93,SSW,202,4.2,9.3,93,0.00,,,0.00,Rainwise IP-100,2013-06-30 17:21:00,
2013-06-30 13:26:00,75.6,73.0,29.93,WNW,292,3.0,11.4,92,0.00,,,0.00,Rainwise IP-100,2013-06-30 17:26:00,
2013-06-30 13:31:00,75.9,73.0,29.93,West,270,4.7,8.4,91,0.00,,,0.00,Rainwise IP-100,2013-06-30 17:31:00,
2013-06-30 13:36:00,76.0,72.7,29.94,WNW,292,2.8,8.9,90,0.00,,,0.00,Rainwise IP-100,2013-06-30 17:36:00,
2013-06-30 13:41:00,75.7,72.3,29.94,WSW,247,5.4,11.0,90,0.00,,,0.00,Rainwise IP-100,2013-06-30 17:41:00,
2013-06-30 13:46:00,75.3,72.3,29.94,WNW,292,8.9,8.9,90,0.00,,,0.00,Rainwise IP-100,2013-06-30 17:46:00,
2013-06-30 13:51:00,75.1,72.3,29.94,West,270,4.0,8.9,91,0.00,,,0.00,Rainwise IP-100,2013-06-30 17:51:00,
2013-06-30 13:56:00,75.1,72.3,29.94,WNW,292,4.7,8.4,91,0.00,,,0.00,Rainwise IP-100,2013-06-30 17:56:00,
2013-06-30 14:01:00,75.0,72.3,29.94,WNW,292,5.8,7.5,91,0.00,,,0.00,Rainwise IP-100,2013-06-30 18:01:00,
2013-06-30 14:06:00,74.8,72.0,29.94,WNW,292,4.0,7.7,91,0.00,,,0.00,Rainwise IP-100,2013-06-30 18:06:00,
2013-06-30 14:11:00,74.9,72.0,29.95,West,270,4.2,9.6,90,0.00,,,0.00,Rainwise IP-100,2013-06-30 18:11:00,
2013-06-30 14:16:00,75.1,72.0,29.95,WSW,247,9.6,12.4,90,0.00,,,0.00,Rainwise IP-100,2013-06-30 18:16:00,
2013-06-30 14:21:00,75.3,72.0,29.95,WNW,292,5.6,11.2,89,0.00,,,0.00,Rainwise IP-100,2013-06-30 18:21:00,
2013-06-30 14:26:00,75.3,71.7,29.95,WNW,292,5.6,14.2,88,0.00,,,0.00,Rainwise IP-100,2013-06-30 18:26:00,
2013-06-30 14:31:00,75.2,71.3,29.95,WNW,292,9.6,9.6,87,0.00,,,0.00,Rainwise IP-100,2013-06-30 18:31:00,
2013-06-30 14:36:00,75.1,71.3,29.95,WNW,292,1.9,10.3,87,0.00,,,0.00,Rainwise IP-100,2013-06-30 18:36:00,
2013-06-30 14:41:00,75.2,71.3,29.95,WNW,292,3.0,9.8,87,0.00,,,0.00,Rainwise IP-100,2013-06-30 18:41:00,
2013-06-30 14:46:00,75.1,71.0,29.95,WNW,292,5.1,9.8,86,0.00,,,0.00,Rainwise IP-100,2013-06-30 18:46:00,
2013-06-30 14:51:00,75.0,71.3,29.95,West,270,4.0,6.5,87,0.00,,,0.00,Rainwise IP-100,2013-06-30 18:51:00,
2013-06-30 14:56:00,75.0,71.3,29.95,WNW,292,4.7,6.5,87,0.00,,,0.00,Rainwise IP-100,2013-06-30 18:56:00,
2013-06-30 15:01:00,75.0,71.3,29.95,WNW,292,4.0,11.0,87,0.00,,,0.00,Rainwise IP-100,2013-06-30 19:01:00,
2013-06-30 15:06:00,74.9,71.3,29.96,West,270,5.1,8.6,87,0.00,,,0.00,Rainwise IP-100,2013-06-30 19:06:00,
2013-06-30 15:11:00,74.9,71.0,29.96,WSW,247,6.8,16.8,86,0.00,,,0.00,Rainwise IP-100,2013-06-30 19:11:00,
2013-06-30 15:16:00,74.7,70.5,29.96,WNW,292,4.0,12.1,86,0.00,,,0.00,Rainwise IP-100,2013-06-30 19:16:00,
2013-06-30 15:21:00,74.5,70.5,29.97,WNW,292,5.4,11.7,86,0.00,,,0.00,Rainwise IP-100,2013-06-30 19:21:00,
2013-06-30 15:26:00,74.2,70.0,29.97,NNW,337,6.3,11.0,86,0.00,,,0.00,Rainwise IP-100,2013-06-30 19:26:00,
2013-06-30 15:31:00,73.8,69.7,29.97,SSW,202,4.9,9.1,87,0.00,,,0.00,Rainwise IP-100,2013-06-30 19:31:00,
2013-06-30 15:36:00,73.5,70.0,29.97,WNW,292,5.4,9.1,88,0.00,,,0.00,Rainwise IP-100,2013-06-30 19:36:00,
2013-06-30 15:41:00,73.5,70.0,29.97,WSW,247,0.0,5.8,88,0.00,,,0.00,Rainwise IP-100,2013-06-30 19:41:00,
2013-06-30 15:46:00,73.6,70.5,29.96,SSW,202,2.6,6.5,89,0.00,,,0.00,Rainwise IP-100,2013-06-30 19:46:00,
2013-06-30 15:51:00,73.8,70.5,29.97,WSW,247,3.0,6.3,89,0.00,,,0.00,Rainwise IP-100,2013-06-30 19:51:00,
2013-06-30 15:56:00,74.0,71.3,29.97,SSW,202,1.2,5.4,90,0.00,,,0.00,Rainwise IP-100,2013-06-30 19:56:00,
2013-06-30 16:01:00,74.2,71.3,29.97,West,270,0.0,2.8,90,0.00,,,0.00,Rainwise IP-100,2013-06-30 20:01:00,
2013-06-30 16:06:00,74.3,71.3,29.97,WNW,292,4.9,7.0,90,0.00,,,0.00,Rainwise IP-100,2013-06-30 20:06:00,
2013-06-30 16:11:00,74.0,71.3,29.97,WSW,247,0.0,6.5,90,0.00,,,0.00,Rainwise IP-100,2013-06-30 20:11:00,
2013-06-30 16:16:00,73.8,71.0,29.97,NNW,337,0.0,6.5,91,0.00,,,0.00,Rainwise IP-100,2013-06-30 20:16:00,
2013-06-30 16:21:00,74.0,71.3,29.97,West,270,1.4,6.5,91,0.00,,,0.00,Rainwise IP-100,2013-06-30 20:21:00,
2013-06-30 16:26:00,73.9,71.7,29.97,WSW,247,0.0,7.2,92,0.00,,,0.00,Rainwise IP-100,2013-06-30 20:26:00,
2013-06-30 16:31:00,73.7,71.3,29.97,WNW,292,4.9,7.5,92,0.00,,,0.00,Rainwise IP-100,2013-06-30 20:31:00,
2013-06-30 16:36:00,73.5,71.7,29.97,WSW,247,0.0,5.1,93,0.00,,,0.00,Rainwise IP-100,2013-06-30 20:36:00,
2013-06-30 16:41:00,73.4,71.3,29.96,SSW,202,0.0,6.1,93,0.00,,,0.00,Rainwise IP-100,2013-06-30 20:41:00,
2013-06-30 16:46:00,73.2,71.3,29.97,SSW,202,2.6,8.6,93,0.00,,,0.00,Rainwise IP-100,2013-06-30 20:46:00,
2013-06-30 16:51:00,73.0,71.0,29.97,SW,225,0.0,7.7,93,0.00,,,0.00,Rainwise IP-100,2013-06-30 20:51:00,
2013-06-30 16:56:00,72.8,71.0,29.97,SSE,157,3.5,5.8,94,0.00,,,0.00,Rainwise IP-100,2013-06-30 20:56:00,
2013-06-30 17:01:00,72.7,71.0,29.97,WSW,247,0.0,8.6,94,0.00,,,0.00,Rainwise IP-100,2013-06-30 21:01:00,
2013-06-30 17:06:00,72.6,71.3,29.97,WSW,247,0.0,6.8,95,0.00,,,0.00,Rainwise IP-100,2013-06-30 21:06:00,
2013-06-30 17:11:00,72.5,71.3,29.97,SW,225,3.5,5.8,95,0.00,,,0.00,Rainwise IP-100,2013-06-30 21:11:00,
2013-06-30 17:16:00,72.6,71.3,29.97,WSW,247,0.0,7.9,95,0.00,,,0.00,Rainwise IP-100,2013-06-30 21:16:00,
2013-06-30 17:21:00,72.7,71.3,29.97,SSW,202,2.8,7.9,95,0.00,,,0.00,Rainwise IP-100,2013-06-30 21:21:00,
2013-06-30 17:26:00,72.8,71.3,29.97,SSW,202,1.9,5.4,95,0.00,,,0.00,Rainwise IP-100,2013-06-30 21:26:00,
2013-06-30 17:31:00,72.9,71.7,29.97,ESE,112,3.5,5.8,95,0.00,,,0.00,Rainwise IP-100,2013-06-30 21:31:00,
2013-06-30 17:36:00,72.9,71.7,29.97,SSE,157,5.1,9.1,95,0.00,,,0.00,Rainwise IP-100,2013-06-30 21:36:00,
2013-06-30 17:41:00,72.7,71.3,29.97,SW,225,2.6,7.7,95,0.00,,,0.00,Rainwise IP-100,2013-06-30 21:41:00,
2013-06-30 17:46:00,72.6,71.3,29.98,SSE,157,0.0,7.7,95,0.00,,,0.00,Rainwise IP-100,2013-06-30 21:46:00,
2013-06-30 17:51:00,72.4,71.0,29.98,SE,135,2.1,4.4,95,0.00,,,0.00,Rainwise IP-100,2013-06-30 21:51:00,
2013-06-30 17:56:00,72.3,71.0,29.98,SSW,202,1.4,6.5,95,0.00,,,0.00,Rainwise IP-100,2013-06-30 21:56:00,
2013-06-30 18:01:00,72.1,70.5,29.98,SSE,157,1.9,4.9,95,0.00,,,0.00,Rainwise IP-100,2013-06-30 22:01:00,
2013-06-30 18:06:00,71.9,70.5,29.98,SSE,157,5.6,5.6,95,0.00,,,0.00,Rainwise IP-100,2013-06-30 22:06:00,
2013-06-30 18:11:00,71.7,70.0,29.99,SSE,157,2.3,7.0,95,0.00,,,0.00,Rainwise IP-100,2013-06-30 22:11:00,
2013-06-30 18:16:00,71.4,69.7,29.98,ESE,112,1.2,5.6,95,0.00,,,0.00,Rainwise IP-100,2013-06-30 22:16:00,
2013-06-30 18:21:00,71.2,70.0,29.99,SSE,157,0.0,5.4,96,0.00,,,0.00,Rainwise IP-100,2013-06-30 22:21:00,
2013-06-30 18:26:00,71.1,69.7,29.99,SSE,157,1.4,4.9,96,0.00,,,0.00,Rainwise IP-100,2013-06-30 22:26:00,
2013-06-30 18:31:00,71.0,69.7,29.98,ESE,112,1.4,5.1,96,0.00,,,0.00,Rainwise IP-100,2013-06-30 22:31:00,
2013-06-30 18:36:00,71.1,69.7,29.99,SSW,202,3.0,7.0,96,0.00,,,0.00,Rainwise IP-100,2013-06-30 22:36:00,
2013-06-30 18:41:00,71.1,69.7,29.98,SSE,157,0.0,6.5,96,0.00,,,0.00,Rainwise IP-100,2013-06-30 22:41:00,
2013-06-30 18:46:00,71.2,70.5,29.99,SSE,157,0.0,5.6,97,0.00,,,0.00,Rainwise IP-100,2013-06-30 22:46:00,
2013-06-30 18:51:00,71.4,70.5,29.99,SSE,157,0.0,4.7,97,0.00,,,0.00,Rainwise IP-100,2013-06-30 22:51:00,
2013-06-30 18:56:00,71.6,71.0,29.99,SSW,202,0.0,4.0,97,0.00,,,0.00,Rainwise IP-100,2013-06-30 22:56:00,
2013-06-30 19:01:00,71.6,71.0,30.00,WSW,247,0.0,4.4,97,0.00,,,0.00,Rainwise IP-100,2013-06-30 23:01:00,
2013-06-30 19:06:00,71.7,71.0,30.00,SSE,157,1.2,5.4,97,0.00,,,0.00,Rainwise IP-100,2013-06-30 23:06:00,
2013-06-30 19:11:00,71.8,71.0,30.00,SW,225,0.0,4.4,97,0.00,,,0.00,Rainwise IP-100,2013-06-30 23:11:00,
2013-06-30 19:16:00,71.8,71.0,30.00,SSW,202,1.4,5.8,98,0.00,,,0.00,Rainwise IP-100,2013-06-30 23:16:00,
2013-06-30 19:21:00,71.7,71.0,30.00,SSE,157,3.7,6.3,98,0.00,,,0.00,Rainwise IP-100,2013-06-30 23:21:00,
2013-06-30 19:26:00,71.7,71.0,30.00,SW,225,0.0,4.7,98,0.00,,,0.00,Rainwise IP-100,2013-06-30 23:26:00,
2013-06-30 19:31:00,71.7,71.0,30.00,SSE,157,3.3,8.2,98,0.00,,,0.00,Rainwise IP-100,2013-06-30 23:31:00,
2013-06-30 19:36:00,71.7,71.0,30.00,WSW,247,5.1,5.8,98,0.00,,,0.00,Rainwise IP-100,2013-06-30 23:36:00,
2013-06-30 19:41:00,71.6,71.0,30.00,NNE,22,0.0,5.1,98,0.00,,,0.00,Rainwise IP-100,2013-06-30 23:41:00,
2013-06-30 19:46:00,71.7,71.0,30.00,SSW,202,1.2,5.6,98,0.00,,,0.00,Rainwise IP-100,2013-06-30 23:46:00,
2013-06-30 19:51:00,71.7,71.0,29.99,South,180,0.0,5.4,98,0.00,,,0.00,Rainwise IP-100,2013-06-30 23:51:00,
2013-06-30 19:56:00,71.7,71.0,30.00,WSW,247,0.0,5.4,98,0.00,,,0.00,Rainwise IP-100,2013-06-30 23:56:00,
2013-06-30 20:01:00,71.7,71.0,30.00,ESE,112,0.0,5.8,98,0.30,,,0.05,Rainwise IP-100,2013-07-01 00:01:00,
2013-06-30 20:06:00,71.6,71.3,30.00,SSE,157,1.2,3.7,99,0.30,,,0.05,Rainwise IP-100,2013-07-01 00:06:00,
2013-06-30 20:11:00,71.6,71.3,30.00,SSW,202,2.3,5.4,99,0.00,,,0.05,Rainwise IP-100,2013-07-01 00:11:00,
2013-06-30 20:16:00,71.5,71.3,30.00,SSW,202,0.0,8.4,99,0.00,,,0.05,Rainwise IP-100,2013-07-01 00:16:00,
2013-06-30 20:21:00,71.4,71.0,30.00,SW,225,0.0,7.0,99,0.00,,,0.05,Rainwise IP-100,2013-07-01 00:21:00,
2013-06-30 20:26:00,71.3,71.0,30.01,WSW,247,4.4,6.1,99,0.00,,,0.05,Rainwise IP-100,2013-07-01 00:26:00,
2013-06-30 20:31:00,71.3,71.0,30.01,SW,225,1.4,5.4,99,0.00,,,0.05,Rainwise IP-100,2013-07-01 00:31:00,
2013-06-30 20:36:00,71.2,71.3,30.00,WNW,292,1.6,6.5,100,0.00,,,0.05,Rainwise IP-100,2013-07-01 00:36:00,
2013-06-30 20:41:00,71.2,71.3,30.01,WSW,247,2.8,3.7,100,0.00,,,0.05,Rainwise IP-100,2013-07-01 00:41:00,
2013-06-30 20:46:00,71.1,71.0,30.00,SSE,157,0.0,5.1,100,0.00,,,0.05,Rainwise IP-100,2013-07-01 00:46:00,
2013-06-30 20:51:00,71.1,71.0,30.01,SSE,157,1.2,8.9,100,0.00,,,0.05,Rainwise IP-100,2013-07-01 00:51:00,
2013-06-30 20:56:00,71.1,71.0,30.00,West,270,0.0,7.0,100,0.00,,,0.05,Rainwise IP-100,2013-07-01 00:56:00,
2013-06-30 21:01:00,71.1,71.0,30.00,SSW,202,2.6,5.1,100,0.00,,,0.05,Rainwise IP-100,2013-07-01 01:01:00,
2013-06-30 21:06:00,71.0,71.0,30.01,South,180,2.1,9.8,100,0.00,,,0.05,Rainwise IP-100,2013-07-01 01:06:00,
2013-06-30 21:11:00,71.0,71.0,30.01,WNW,292,2.3,5.8,100,0.00,,,0.05,Rainwise IP-100,2013-07-01 01:11:00,
2013-06-30 21:16:00,71.0,71.0,30.01,SSE,157,5.6,5.6,100,0.00,,,0.05,Rainwise IP-100,2013-07-01 01:16:00,
2013-06-30 21:21:00,70.9,71.0,30.01,WNW,292,0.0,8.9,100,0.00,,,0.05,Rainwise IP-100,2013-07-01 01:21:00,
2013-06-30 21:26:00,70.8,71.0,30.02,WSW,247,1.6,5.4,100,0.00,,,0.05,Rainwise IP-100,2013-07-01 01:26:00,
2013-06-30 21:31:00,70.7,70.5,30.02,WSW,247,1.9,8.2,100,0.00,,,0.05,Rainwise IP-100,2013-07-01 01:31:00,
2013-06-30 21:36:00,70.7,70.5,30.02,SSE,157,0.0,3.7,100,0.00,,,0.05,Rainwise IP-100,2013-07-01 01:36:00,
2013-06-30 21:41:00,70.7,70.5,30.02,SSW,202,0.0,5.6,100,0.00,,,0.05,Rainwise IP-100,2013-07-01 01:41:00,
2013-06-30 21:46:00,70.7,70.5,30.02,SW,225,4.4,7.0,100,0.00,,,0.05,Rainwise IP-100,2013-07-01 01:46:00,
2013-06-30 21:51:00,70.7,70.5,30.01,SSW,202,1.6,6.1,100,0.00,,,0.05,Rainwise IP-100,2013-07-01 01:51:00,
2013-06-30 21:56:00,70.7,70.5,30.02,West,270,1.2,7.9,100,0.00,,,0.05,Rainwise IP-100,2013-07-01 01:56:00,
2013-06-30 22:01:00,70.8,71.0,30.02,SSW,202,0.0,5.8,100,0.00,,,0.05,Rainwise IP-100,2013-07-01 02:01:00,
2013-06-30 22:06:00,70.7,70.5,30.02,SSE,157,0.0,6.5,100,0.00,,,0.05,Rainwise IP-100,2013-07-01 02:06:00,
2013-06-30 22:11:00,70.7,70.5,30.02,West,270,2.8,8.2,100,0.00,,,0.05,Rainwise IP-100,2013-07-01 02:11:00,
2013-06-30 22:16:00,70.8,71.0,30.02,NW,315,0.0,5.8,100,0.00,,,0.05,Rainwise IP-100,2013-07-01 02:16:00,
2013-06-30 22:21:00,70.8,71.0,30.02,WNW,292,0.0,4.4,100,0.00,,,0.05,Rainwise IP-100,2013-07-01 02:21:00,
2013-06-30 22:26:00,70.8,71.0,30.02,SSW,202,3.0,7.5,100,0.00,,,0.05,Rainwise IP-100,2013-07-01 02:26:00,
2013-06-30 22:31:00,70.8,71.0,30.02,SW,225,4.4,10.0,100,0.00,,,0.05,Rainwise IP-100,2013-07-01 02:31:00,
2013-06-30 22:36:00,70.9,71.0,30.02,WSW,247,1.6,7.2,100,0.00,,,0.05,Rainwise IP-100,2013-07-01 02:36:00,
2013-06-30 22:41:00,71.0,71.0,30.02,West,270,1.2,7.5,100,0.00,,,0.05,Rainwise IP-100,2013-07-01 02:41:00,
2013-06-30 22:46:00,70.9,71.0,30.02,SW,225,7.0,7.0,100,0.00,,,0.05,Rainwise IP-100,2013-07-01 02:46:00,
2013-06-30 22:51:00,70.9,71.0,30.02,SE,135,2.6,8.9,100,0.00,,,0.05,Rainwise IP-100,2013-07-01 02:51:00,
2013-06-30 22:56:00,70.8,71.0,30.02,NNW,337,1.6,8.6,100,0.00,,,0.05,Rainwise IP-100,2013-07-01 02:56:00,
2013-06-30 23:01:00,70.8,71.0,30.02,SSW,202,0.0,8.2,100,0.00,,,0.05,Rainwise IP-100,2013-07-01 03:01:00,
2013-06-30 23:06:00,70.9,71.0,30.02,WSW,247,4.2,9.3,100,0.00,,,0.05,Rainwise IP-100,2013-07-01 03:06:00,
2013-06-30 23:11:00,71.1,71.0,30.02,WSW,247,2.6,6.5,100,0.00,,,0.05,Rainwise IP-100,2013-07-01 03:11:00,
2013-06-30 23:16:00,71.2,71.3,30.02,SSW,202,4.2,7.9,100,0.00,,,0.05,Rainwise IP-100,2013-07-01 03:16:00,
2013-06-30 23:21:00,71.2,71.3,30.02,SW,225,7.7,9.1,100,0.00,,,0.05,Rainwise IP-100,2013-07-01 03:21:00,
2013-06-30 23:26:00,71.3,71.3,30.02,WNW,292,5.1,10.3,100,0.00,,,0.05,Rainwise IP-100,2013-07-01 03:26:00,
2013-06-30 23:31:00,71.4,71.3,30.02,ESE,112,3.7,8.2,100,0.00,,,0.05,Rainwise IP-100,2013-07-01 03:31:00,
2013-06-30 23:36:00,71.6,71.7,30.03,West,270,2.6,12.1,100,0.00,,,0.05,Rainwise IP-100,2013-07-01 03:36:00,
2013-06-30 23:41:00,71.6,71.7,30.03,NNW,337,0.0,8.4,100,0.00,,,0.05,Rainwise IP-100,2013-07-01 03:41:00,
2013-06-30 23:46:00,71.6,71.7,30.03,NW,315,5.6,8.9,100,0.00,,,0.05,Rainwise IP-100,2013-07-01 03:46:00,
2013-06-30 23:51:00,71.7,71.7,30.03,SSW,202,3.0,10.3,100,0.06,,,0.06,Rainwise IP-100,2013-07-01 03:51:00,
2013-06-30 23:54:00,71.7,71.7,30.03,WSW,247,2.3,11.7,100,0.06,,,0.06,Rainwise IP-100,2013-07-01 03:54:00,
2013-06-30 23:59:00,71.7,71.7,30.03,SSW,202,0.0,10.7,100,0.00,,,0.06,Rainwise IP-100,2013-07-01 03:59:00,